createdAt,value
2022-10-12T00:01:52.273Z,56.78
2022-10-12T00:04:19.454Z,56.71
2022-10-12T00:06:46.557Z,56.71
2022-10-12T00:09:13.749Z,56.77
2022-10-12T00:11:41.218Z,56.71
2022-10-12T00:14:08.485Z,56.94
2022-10-12T00:16:36.326Z,56.92
2022-10-12T00:19:05.121Z,56.95
2022-10-12T00:21:32.207Z,56.66
2022-10-12T00:23:59.319Z,56.72
2022-10-12T00:26:26.418Z,56.64
2022-10-12T00:28:53.779Z,56.71
2022-10-12T00:31:21.024Z,56.78
2022-10-12T00:33:48.099Z,56.74
2022-10-12T00:36:15.177Z,56.82
2022-10-12T00:38:42.317Z,56.56
2022-10-12T00:41:09.490Z,56.74
2022-10-12T00:43:39.014Z,56.82
2022-10-12T00:46:06.128Z,56.79
2022-10-12T00:48:33.240Z,56.91
2022-10-12T00:51:00.303Z,56.66
2022-10-12T00:53:27.432Z,56.82
2022-10-12T00:55:54.535Z,56.55
2022-10-12T00:58:21.787Z,56.64
2022-10-12T01:00:49.156Z,56.60
2022-10-12T01:03:16.257Z,56.69
2022-10-12T01:05:43.424Z,56.59
2022-10-12T01:08:10.562Z,56.60
2022-10-12T01:10:37.648Z,56.66
2022-10-12T01:13:04.735Z,56.68
2022-10-12T01:15:31.811Z,56.96
2022-10-12T01:17:58.906Z,56.49
2022-10-12T01:20:25.981Z,56.53
2022-10-12T01:22:53.094Z,56.52
2022-10-12T01:25:20.178Z,56.66
2022-10-12T01:27:47.327Z,56.51
2022-10-12T01:30:14.447Z,56.60
2022-10-12T01:32:41.549Z,56.63
2022-10-12T01:35:08.622Z,56.90
2022-10-12T01:37:36.235Z,56.60
2022-10-12T01:40:03.513Z,56.86
2022-10-12T01:42:30.591Z,56.74
2022-10-12T01:44:57.674Z,56.72
2022-10-12T01:47:24.751Z,56.55
2022-10-12T01:49:52.115Z,56.59
2022-10-12T01:52:19.284Z,56.73
2022-10-12T01:54:46.400Z,56.48
2022-10-12T01:57:13.470Z,56.61
2022-10-12T01:59:40.539Z,56.62
2022-10-12T02:02:07.608Z,56.73
2022-10-12T02:04:34.693Z,56.80
2022-10-12T02:07:01.771Z,56.58
2022-10-12T02:09:29.007Z,56.52
2022-10-12T02:11:57.249Z,56.78
2022-10-12T02:14:24.356Z,56.50
2022-10-12T02:16:51.427Z,56.44
2022-10-12T02:19:18.542Z,56.73
2022-10-12T02:21:45.629Z,56.52
2022-10-12T02:24:12.760Z,56.72
2022-10-12T02:26:39.941Z,56.51
2022-10-12T02:29:07.046Z,56.70
2022-10-12T02:31:34.136Z,56.36
2022-10-12T02:34:01.323Z,56.59
2022-10-12T02:36:28.486Z,56.52
2022-10-12T02:38:55.597Z,56.59
2022-10-12T02:41:22.735Z,56.43
2022-10-12T02:43:49.808Z,56.35
2022-10-12T02:46:16.923Z,56.65
2022-10-12T02:48:43.995Z,56.34
2022-10-12T02:51:11.474Z,56.47
2022-10-12T02:53:38.559Z,56.28
2022-10-12T02:56:05.777Z,56.66
2022-10-12T02:58:32.897Z,56.29
2022-10-12T03:01:00.046Z,56.59
2022-10-12T03:03:27.187Z,56.43
2022-10-12T03:05:54.274Z,56.28
2022-10-12T03:08:21.348Z,56.28
2022-10-12T03:10:48.455Z,56.33
2022-10-12T03:13:15.597Z,56.67
2022-10-12T03:15:42.692Z,56.28
2022-10-12T03:18:09.797Z,56.19
2022-10-12T03:20:36.931Z,56.61
2022-10-12T03:23:04.021Z,56.44
2022-10-12T03:25:31.197Z,56.48
2022-10-12T03:27:58.271Z,56.32
2022-10-12T03:30:25.364Z,56.29
2022-10-12T03:32:52.424Z,56.12
2022-10-12T03:35:19.527Z,56.55
2022-10-12T03:37:46.595Z,56.21
2022-10-12T03:40:13.952Z,56.23
2022-10-12T03:42:41.013Z,56.47
2022-10-12T03:45:09.546Z,56.35
2022-10-12T03:47:38.104Z,56.44
2022-10-12T03:50:05.391Z,56.09
2022-10-12T03:52:32.581Z,56.24
2022-10-12T03:54:59.671Z,56.10
2022-10-12T03:57:26.887Z,56.28
2022-10-12T03:59:54.025Z,55.99
2022-10-12T04:02:21.131Z,56.02
2022-10-12T04:04:48.231Z,56.24
2022-10-12T04:07:15.387Z,55.93
2022-10-12T04:09:42.475Z,56.25
2022-10-12T04:12:09.537Z,56.00
2022-10-12T04:14:37.120Z,55.93
2022-10-12T04:17:04.581Z,56.21
2022-10-12T04:19:31.670Z,55.97
2022-10-12T04:21:58.766Z,55.92
2022-10-12T04:24:25.827Z,55.93
2022-10-12T04:26:52.898Z,56.03
2022-10-12T04:29:20.054Z,55.92
2022-10-12T04:31:47.119Z,55.86
2022-10-12T04:34:14.203Z,56.00
2022-10-12T04:36:41.388Z,55.90
2022-10-12T04:39:08.475Z,55.86
2022-10-12T04:41:35.564Z,55.95
2022-10-12T04:44:02.651Z,55.98
2022-10-12T04:46:29.722Z,55.90
2022-10-12T04:48:56.796Z,55.66
2022-10-12T04:51:24.785Z,56.03
2022-10-12T04:53:51.852Z,55.64
2022-10-12T04:56:19.179Z,55.97
2022-10-12T04:58:46.334Z,55.81
2022-10-12T05:01:13.462Z,55.98
2022-10-12T05:03:42.116Z,55.88
2022-10-12T05:06:09.451Z,55.61
2022-10-12T05:08:36.570Z,55.75
2022-10-12T05:11:03.676Z,55.83
2022-10-12T05:13:30.784Z,55.53
2022-10-12T05:15:57.852Z,55.50
2022-10-12T05:18:24.924Z,55.80
2022-10-12T05:20:56.666Z,55.68
2022-10-12T05:23:24.231Z,55.61
2022-10-12T05:25:51.319Z,55.55
2022-10-12T05:28:18.466Z,55.38
2022-10-12T05:30:45.615Z,55.52
2022-10-12T05:33:12.682Z,55.66
2022-10-12T05:35:43.947Z,55.33
2022-10-12T05:38:13.947Z,55.40
2022-10-12T05:40:41.047Z,55.48
2022-10-12T05:43:08.181Z,55.47
2022-10-12T05:45:35.242Z,55.43
2022-10-12T05:48:02.316Z,55.33
2022-10-12T05:50:29.377Z,55.44
2022-10-12T05:52:56.552Z,55.39
2022-10-12T05:55:23.675Z,55.26
2022-10-12T05:57:51.953Z,55.28
2022-10-12T06:00:19.203Z,55.37
2022-10-12T06:02:46.318Z,55.42
2022-10-12T06:05:13.404Z,55.20
2022-10-12T06:07:40.482Z,55.36
2022-10-12T06:10:07.622Z,55.13
2022-10-12T06:12:34.902Z,55.13
2022-10-12T06:15:02.214Z,55.29
2022-10-12T06:17:29.491Z,55.33
2022-10-12T06:19:56.719Z,55.00
2022-10-12T06:22:23.803Z,54.99
2022-10-12T06:24:50.924Z,54.94
2022-10-12T06:27:19.997Z,54.85
2022-10-12T06:29:47.069Z,55.02
2022-10-12T06:32:14.154Z,55.21
2022-10-12T06:34:41.282Z,54.93
2022-10-12T06:37:16.399Z,55.06
2022-10-12T06:39:55.831Z,54.94
2022-10-12T06:42:22.911Z,54.85
2022-10-12T06:44:50.053Z,54.76
2022-10-12T06:47:17.143Z,54.97
2022-10-12T06:49:44.261Z,54.74
2022-10-12T06:52:11.379Z,54.83
2022-10-12T06:54:38.524Z,54.85
2022-10-12T06:57:05.611Z,55.04
2022-10-12T06:59:32.730Z,54.90
2022-10-12T07:02:00.020Z,54.60
2022-10-12T07:04:27.172Z,54.87
2022-10-12T07:06:54.251Z,54.70
2022-10-12T07:09:21.323Z,54.70
2022-10-12T07:11:48.404Z,54.68
2022-10-12T07:14:15.466Z,54.60
2022-10-12T07:16:42.551Z,54.49
2022-10-12T07:19:09.625Z,54.89
2022-10-12T07:21:36.704Z,54.70
2022-10-12T07:24:03.778Z,54.68
2022-10-12T07:26:31.683Z,54.71
2022-10-12T07:28:58.859Z,54.78
2022-10-12T07:31:25.956Z,54.73
2022-10-12T07:33:53.089Z,54.56
2022-10-12T07:36:21.929Z,54.83
2022-10-12T07:38:49.355Z,54.48
2022-10-12T07:41:16.440Z,54.21
2022-10-12T07:43:43.558Z,54.30
2022-10-12T07:46:10.676Z,53.94
2022-10-12T07:48:37.994Z,54.05
2022-10-12T07:51:05.107Z,54.01
2022-10-12T07:53:32.172Z,53.87
2022-10-12T07:55:59.287Z,54.07
2022-10-12T07:58:26.353Z,54.19
2022-10-12T08:00:53.459Z,54.00
2022-10-12T08:03:20.531Z,54.15
2022-10-12T08:05:47.608Z,53.78
2022-10-12T08:08:14.714Z,54.01
2022-10-12T08:10:41.806Z,53.80
2022-10-12T08:13:08.923Z,53.93
2022-10-12T08:15:35.980Z,54.05
2022-10-12T08:18:03.083Z,54.05
2022-10-12T08:20:30.194Z,53.65
2022-10-12T08:22:57.393Z,53.96
2022-10-12T08:25:24.658Z,53.79
2022-10-12T08:27:51.978Z,53.96
2022-10-12T08:30:20.187Z,54.03
2022-10-12T08:32:47.261Z,53.95
2022-10-12T08:35:14.340Z,53.97
2022-10-12T08:37:41.725Z,53.98
2022-10-12T08:40:09.035Z,54.01
2022-10-12T08:42:36.254Z,53.95
2022-10-12T08:45:03.390Z,53.96
2022-10-12T08:47:30.531Z,53.76
2022-10-12T08:49:57.613Z,54.05
2022-10-12T08:52:24.752Z,53.75
2022-10-12T08:54:51.903Z,53.80
2022-10-12T08:57:19.029Z,53.61
2022-10-12T08:59:46.151Z,53.65
2022-10-12T09:02:13.283Z,53.54
2022-10-12T09:04:40.484Z,53.76
2022-10-12T09:07:07.556Z,53.54
2022-10-12T09:09:34.640Z,53.78
2022-10-12T09:12:01.744Z,53.74
2022-10-12T09:14:28.896Z,53.98
2022-10-12T09:16:55.986Z,53.58
2022-10-12T09:19:23.143Z,53.85
2022-10-12T09:21:50.285Z,53.92
2022-10-12T09:24:17.467Z,53.77
2022-10-12T09:26:44.547Z,53.92
2022-10-12T09:29:11.622Z,53.66
2022-10-12T09:31:38.733Z,53.54
2022-10-12T09:34:05.815Z,53.82
2022-10-12T09:36:32.898Z,53.42
2022-10-12T09:39:00.003Z,53.38
2022-10-12T09:41:27.295Z,53.53
2022-10-12T09:43:54.452Z,53.15
2022-10-12T09:46:21.535Z,53.42
2022-10-12T09:48:48.691Z,53.25
2022-10-12T09:51:16.571Z,53.24
2022-10-12T09:53:43.677Z,53.30
2022-10-12T09:56:13.200Z,53.22
2022-10-12T09:58:43.338Z,53.52
2022-10-12T10:01:10.405Z,53.45
2022-10-12T10:03:37.517Z,53.74
2022-10-12T10:06:04.597Z,53.75
2022-10-12T10:08:31.887Z,53.72
2022-10-12T10:10:58.979Z,53.84
2022-10-12T10:13:26.134Z,53.92
2022-10-12T10:15:53.528Z,53.98
2022-10-12T10:18:20.696Z,53.72
2022-10-12T10:20:47.793Z,53.95
2022-10-12T10:23:15.040Z,53.56
2022-10-12T10:25:42.113Z,53.86
2022-10-12T10:28:09.638Z,53.94
2022-10-12T10:30:40.764Z,53.71
2022-10-12T10:33:08.343Z,53.86
2022-10-12T10:35:35.441Z,53.72
2022-10-12T10:38:03.870Z,53.88
2022-10-12T10:40:30.940Z,53.80
2022-10-12T10:42:58.070Z,53.58
2022-10-12T10:45:25.212Z,53.92
2022-10-12T10:47:56.465Z,53.50
2022-10-12T10:50:23.538Z,53.58
2022-10-12T10:52:50.610Z,53.77
2022-10-12T10:55:17.862Z,53.48
2022-10-12T10:57:44.926Z,53.64
2022-10-12T11:00:37.173Z,53.82
2022-10-12T11:02:59.146Z,53.96
2022-10-12T11:05:26.299Z,53.52
2022-10-12T11:07:53.382Z,53.57
2022-10-12T11:10:20.460Z,53.87
2022-10-12T11:12:49.692Z,53.90
2022-10-12T11:15:16.843Z,53.74
2022-10-12T11:17:44.044Z,53.87
2022-10-12T11:20:13.603Z,53.76
2022-10-12T11:22:42.867Z,53.51
2022-10-12T11:25:09.980Z,53.57
2022-10-12T11:27:37.067Z,53.78
2022-10-12T11:30:09.918Z,53.60
2022-10-12T11:32:37.276Z,53.52
2022-10-12T11:35:04.495Z,53.50
2022-10-12T11:37:31.571Z,53.51
2022-10-12T11:39:58.658Z,53.38
2022-10-12T11:42:25.727Z,53.52
2022-10-12T11:44:52.803Z,53.57
2022-10-12T11:47:19.869Z,53.70
2022-10-12T11:49:46.939Z,53.75
2022-10-12T11:52:14.090Z,53.51
2022-10-12T11:54:41.203Z,53.68
2022-10-12T11:57:08.284Z,53.78
2022-10-12T11:59:35.390Z,53.74
2022-10-12T12:02:02.515Z,53.86
2022-10-12T12:04:41.858Z,53.42
2022-10-12T12:07:14.577Z,53.24
2022-10-12T12:09:44.209Z,53.10
2022-10-12T12:12:16.089Z,53.43
2022-10-12T12:14:43.515Z,52.89
2022-10-12T12:17:10.930Z,53.24
2022-10-12T12:19:38.131Z,53.29
2022-10-12T12:22:05.234Z,53.28
2022-10-12T12:24:32.346Z,53.20
2022-10-12T12:26:59.407Z,53.17
2022-10-12T12:29:27.107Z,53.56
2022-10-12T12:31:56.197Z,53.11
2022-10-12T12:34:23.266Z,53.03
2022-10-12T12:36:52.113Z,52.89
2022-10-12T12:39:19.206Z,53.39
2022-10-12T12:41:50.283Z,52.96
2022-10-12T12:44:21.345Z,53.11
2022-10-12T12:46:48.445Z,53.32
2022-10-12T12:49:15.539Z,53.21
2022-10-12T12:51:42.648Z,53.36
2022-10-12T12:54:09.727Z,53.08
2022-10-12T12:56:36.869Z,53.33
2022-10-12T12:59:04.010Z,53.51
2022-10-12T13:01:31.158Z,53.52
2022-10-12T13:03:58.292Z,53.17
2022-10-12T13:06:25.376Z,53.13
2022-10-12T13:08:52.447Z,53.35
2022-10-12T13:11:19.567Z,53.15
2022-10-12T13:13:46.705Z,53.17
2022-10-12T13:16:28.467Z,53.16
2022-10-12T13:19:01.894Z,53.29
2022-10-12T13:21:28.967Z,53.38
2022-10-12T13:23:56.073Z,53.39
2022-10-12T13:26:23.259Z,53.62
2022-10-12T13:28:50.428Z,53.93
2022-10-12T13:31:17.620Z,53.89
2022-10-12T13:33:44.749Z,53.70
2022-10-12T13:36:13.282Z,53.82
2022-10-12T13:38:40.558Z,53.70
2022-10-12T13:41:07.697Z,54.03
2022-10-12T13:43:34.765Z,53.69
2022-10-12T13:46:01.894Z,53.70
2022-10-12T13:48:54.313Z,53.57
2022-10-12T13:51:16.121Z,53.93
2022-10-12T13:53:43.355Z,53.78
2022-10-12T13:56:10.462Z,53.62
2022-10-12T13:58:37.601Z,53.58
2022-10-12T14:01:04.918Z,53.92
2022-10-12T14:03:32.379Z,53.73
2022-10-12T14:06:04.099Z,53.99
2022-10-12T14:08:31.723Z,53.73
2022-10-12T14:10:59.123Z,53.76
2022-10-12T14:13:26.430Z,54.06
2022-10-12T14:15:53.524Z,54.05
2022-10-12T14:18:20.858Z,53.85
2022-10-12T14:20:48.287Z,54.07
2022-10-12T14:23:15.377Z,53.63
2022-10-12T14:25:42.462Z,53.67
2022-10-12T14:28:12.988Z,53.94
2022-10-12T14:30:40.347Z,53.92
2022-10-12T14:33:07.416Z,53.83
2022-10-12T14:35:34.490Z,53.85
2022-10-12T14:38:01.573Z,54.09
2022-10-12T14:40:28.666Z,53.92
2022-10-12T14:42:55.785Z,53.79
2022-10-12T14:45:23.006Z,53.92
2022-10-12T14:47:50.082Z,54.04
2022-10-12T14:50:17.165Z,54.04
2022-10-12T14:52:44.285Z,54.03
2022-10-12T14:55:11.371Z,53.78
2022-10-12T14:57:38.467Z,54.02
2022-10-12T15:00:05.548Z,54.15
2022-10-12T15:02:32.753Z,54.01
2022-10-12T15:04:59.898Z,53.93
2022-10-12T15:07:26.978Z,53.91
2022-10-12T15:09:54.046Z,53.56
2022-10-12T15:12:21.146Z,53.68
2022-10-12T15:14:49.457Z,53.79
2022-10-12T15:17:16.531Z,53.71
2022-10-12T15:19:43.684Z,53.67
2022-10-12T15:22:10.776Z,53.88
2022-10-12T15:24:37.879Z,53.88
2022-10-12T15:27:05.008Z,53.78
2022-10-12T15:29:32.105Z,53.77
2022-10-12T15:31:59.631Z,53.98
2022-10-12T15:34:26.993Z,53.80
2022-10-12T15:36:54.105Z,53.91
2022-10-12T15:39:21.166Z,53.82
2022-10-12T15:41:48.679Z,53.83
2022-10-12T15:44:15.817Z,53.73
2022-10-12T15:46:42.911Z,53.94
2022-10-12T15:49:10.027Z,53.74
2022-10-12T15:51:37.139Z,53.94
2022-10-12T15:54:04.257Z,54.17
2022-10-12T15:56:31.384Z,54.03
2022-10-12T15:58:58.572Z,54.25
2022-10-12T16:01:25.749Z,54.12
2022-10-12T16:03:52.943Z,54.21
2022-10-12T16:06:20.127Z,54.10
2022-10-12T16:08:47.223Z,54.07
2022-10-12T16:11:14.378Z,54.08
2022-10-12T16:13:47.932Z,54.33
2022-10-12T16:16:17.047Z,54.17
2022-10-12T16:18:44.148Z,54.22
2022-10-12T16:21:11.486Z,54.01
2022-10-12T16:23:38.630Z,54.30
2022-10-12T16:26:05.812Z,54.02
2022-10-12T16:28:32.994Z,54.16
2022-10-12T16:31:00.099Z,54.60
2022-10-12T16:33:27.268Z,54.14
2022-10-12T16:35:54.339Z,53.98
2022-10-12T16:38:21.453Z,54.44
2022-10-12T16:40:49.378Z,54.40
2022-10-12T16:43:16.449Z,54.45
2022-10-12T16:45:43.554Z,54.56
2022-10-12T16:48:10.648Z,54.88
2022-10-12T16:50:40.447Z,54.66
2022-10-12T16:53:07.737Z,54.88
2022-10-12T16:55:35.053Z,54.62
2022-10-12T16:58:02.229Z,54.91
2022-10-12T17:00:29.356Z,55.09
2022-10-12T17:02:57.473Z,55.22
2022-10-12T17:05:24.719Z,54.99
2022-10-12T17:07:51.815Z,54.85
2022-10-12T17:10:18.891Z,55.26
2022-10-12T17:12:45.961Z,55.30
2022-10-12T17:15:13.093Z,55.11
2022-10-12T17:17:40.194Z,55.39
2022-10-12T17:20:07.396Z,55.17
2022-10-12T17:22:34.943Z,55.50
2022-10-12T17:25:02.126Z,55.53
2022-10-12T17:27:32.209Z,55.22
2022-10-12T17:29:59.721Z,55.35
2022-10-12T17:32:27.065Z,55.53
2022-10-12T17:34:54.332Z,55.31
2022-10-12T17:37:22.010Z,55.56
2022-10-12T17:39:50.441Z,55.60
2022-10-12T17:42:18.803Z,55.68
2022-10-12T17:44:46.166Z,55.63
2022-10-12T17:47:13.241Z,55.74
2022-10-12T17:49:40.366Z,55.78
2022-10-12T17:52:07.494Z,55.90
2022-10-12T17:54:34.649Z,55.83
2022-10-12T17:57:01.741Z,55.97
2022-10-12T17:59:28.993Z,55.94
2022-10-12T18:01:56.135Z,55.66
2022-10-12T18:04:23.359Z,55.87
2022-10-12T18:06:50.514Z,55.95
2022-10-12T18:09:17.664Z,56.02
2022-10-12T18:11:44.759Z,56.15
2022-10-12T18:14:13.057Z,55.98
2022-10-12T18:16:40.212Z,56.13
2022-10-12T18:19:09.629Z,56.06
2022-10-12T18:21:37.022Z,56.35
2022-10-12T18:24:04.114Z,56.21
2022-10-12T18:26:33.063Z,56.22
2022-10-12T18:29:00.218Z,56.50
2022-10-12T18:31:27.343Z,56.24
2022-10-12T18:33:54.500Z,56.48
2022-10-12T18:36:21.659Z,56.40
2022-10-12T18:38:48.925Z,56.31
2022-10-12T18:41:16.232Z,56.17
2022-10-12T18:43:43.350Z,56.53
2022-10-12T18:46:10.539Z,56.71
2022-10-12T18:48:37.668Z,56.54
2022-10-12T18:51:04.738Z,56.47
2022-10-12T18:53:31.798Z,56.72
2022-10-12T18:55:58.895Z,56.57
2022-10-12T18:58:25.987Z,56.41
2022-10-12T19:00:53.173Z,56.99
2022-10-12T19:03:20.299Z,56.82
2022-10-12T19:05:47.413Z,56.84
2022-10-12T19:08:14.487Z,56.90
2022-10-12T19:10:41.588Z,56.37
2022-10-12T19:13:08.747Z,56.86
2022-10-12T19:15:35.826Z,56.94
2022-10-12T19:18:02.914Z,56.73
2022-10-12T19:20:30.653Z,57.00
2022-10-12T19:22:57.741Z,56.71
2022-10-12T19:25:24.854Z,56.56
2022-10-12T19:27:51.930Z,56.75
2022-10-12T19:30:19.050Z,57.11
2022-10-12T19:32:48.669Z,56.73
2022-10-12T19:35:15.750Z,56.63
2022-10-12T19:37:42.840Z,57.04
2022-10-12T19:40:12.577Z,57.13
2022-10-12T19:42:39.667Z,57.06
2022-10-12T19:45:06.779Z,56.98
2022-10-12T19:47:34.837Z,56.85
2022-10-12T19:50:01.893Z,57.16
2022-10-12T19:52:29.187Z,56.97
2022-10-12T19:54:56.264Z,57.15
2022-10-12T19:57:24.082Z,57.02
2022-10-12T19:59:51.254Z,57.26
2022-10-12T20:02:18.714Z,57.11
2022-10-12T20:04:45.990Z,57.10
2022-10-12T20:07:13.151Z,57.34
2022-10-12T20:09:40.219Z,57.06
2022-10-12T20:12:07.299Z,57.32
2022-10-12T20:14:34.403Z,57.40
2022-10-12T20:17:01.479Z,57.52
2022-10-12T20:19:28.619Z,57.22
2022-10-12T20:21:55.735Z,57.44
2022-10-12T20:24:22.819Z,57.24
2022-10-12T20:26:49.904Z,57.34
2022-10-12T20:29:16.998Z,57.35
2022-10-12T20:31:44.090Z,57.38
2022-10-12T20:34:11.250Z,57.63
2022-10-12T20:36:38.322Z,57.33
2022-10-12T20:39:05.496Z,57.51
2022-10-12T20:41:32.738Z,57.59
2022-10-12T20:43:59.949Z,57.69
2022-10-12T20:46:27.049Z,57.34
2022-10-12T20:48:58.177Z,57.39
2022-10-12T20:51:25.859Z,57.68
2022-10-12T20:53:52.992Z,57.60
2022-10-12T20:56:20.121Z,57.60
2022-10-12T20:58:47.196Z,57.38
2022-10-12T21:01:14.362Z,57.29
2022-10-12T21:03:42.347Z,57.57
2022-10-12T21:06:09.460Z,57.30
2022-10-12T21:08:36.639Z,57.42
2022-10-12T21:11:03.764Z,57.66
2022-10-12T21:13:30.834Z,57.59
2022-10-12T21:15:58.379Z,57.71
2022-10-12T21:18:25.684Z,57.44
2022-10-12T21:20:52.752Z,57.80
2022-10-12T21:23:19.828Z,57.63
2022-10-12T21:25:46.907Z,57.43
2022-10-12T21:28:14.037Z,57.36
2022-10-12T21:30:41.140Z,57.57
2022-10-12T21:33:08.209Z,57.85
2022-10-12T21:35:35.339Z,57.79
2022-10-12T21:38:03.708Z,57.71
2022-10-12T21:40:30.784Z,57.45
2022-10-12T21:42:57.859Z,57.58
2022-10-12T21:45:24.969Z,57.53
2022-10-12T21:47:52.046Z,57.68
2022-10-12T21:50:19.106Z,57.45
2022-10-12T21:52:49.682Z,57.69
2022-10-12T21:55:17.191Z,57.63
2022-10-12T21:57:44.258Z,57.72
2022-10-12T22:00:11.328Z,57.48
2022-10-12T22:02:38.655Z,57.65
2022-10-12T22:05:05.896Z,57.71
2022-10-12T22:07:32.971Z,57.53
2022-10-12T22:10:00.084Z,57.46
2022-10-12T22:12:27.503Z,57.66
2022-10-12T22:14:54.579Z,57.71
2022-10-12T22:17:21.705Z,57.42
2022-10-12T22:19:48.776Z,57.50
2022-10-12T22:22:16.240Z,57.35
2022-10-12T22:24:43.526Z,57.52
2022-10-12T22:27:10.604Z,57.49
2022-10-12T22:29:37.689Z,57.49
2022-10-12T22:32:04.764Z,57.79
2022-10-12T22:34:31.844Z,57.36
2022-10-12T22:36:58.923Z,57.86
2022-10-12T22:39:26.006Z,57.50
2022-10-12T22:41:53.088Z,57.69
2022-10-12T22:44:20.161Z,57.55
2022-10-12T22:46:47.239Z,57.46
2022-10-12T22:49:14.311Z,57.40
2022-10-12T22:51:41.450Z,57.47
2022-10-12T22:54:08.539Z,57.56
2022-10-12T22:56:35.674Z,57.56
2022-10-12T22:59:02.771Z,57.55
2022-10-12T23:01:29.878Z,57.48
2022-10-12T23:03:57.060Z,57.50
2022-10-12T23:06:24.160Z,57.56
2022-10-12T23:08:51.268Z,57.51
2022-10-12T23:11:18.389Z,57.68
2022-10-12T23:13:45.614Z,57.73
2022-10-12T23:16:12.781Z,57.68
2022-10-12T23:18:39.908Z,57.58
2022-10-12T23:21:07.079Z,57.72
2022-10-12T23:23:34.794Z,57.45
2022-10-12T23:26:01.959Z,57.74
2022-10-12T23:28:29.103Z,57.73
2022-10-12T23:30:56.219Z,57.73
2022-10-12T23:33:23.364Z,57.50
2022-10-12T23:35:50.459Z,57.69
2022-10-12T23:38:17.536Z,57.56
2022-10-12T23:40:44.709Z,57.52
2022-10-12T23:43:11.817Z,57.54
2022-10-12T23:45:38.899Z,57.79
2022-10-12T23:48:05.966Z,57.48
2022-10-12T23:50:33.050Z,57.80
2022-10-12T23:53:00.238Z,57.47
2022-10-12T23:55:27.306Z,57.72
2022-10-12T23:57:54.647Z,57.81
